ASA710 KGEG-KPDX
Flight info
| Callsign | ASA710 |
|---|---|
| Flight time | 0h 47m |
| Altitude | 30000 |
| Route | ZEGRO JORAD HHOOD6 |
| Aircraft | B738/M-SDE2E3FGHIRWXY/LB1 |
Departure
| Time | 2026-05-05 15:14 |
|---|---|
| Airport | Spokane International Airport (KGEG) |
Arrival
| Time | 2026-05-05 16:01 |
|---|---|
| Airport | Portland International Airport (KPDX) |
| Time | Latitude | Longitude | Altitude | Speed | Heading |
|---|---|---|---|---|---|
| 2026-05-05 14:52 | 47.62338 | -117.54158 | 2388 ft | 0 kts | 0° |
| 2026-05-05 15:05 | 47.62334 | -117.54158 | 2379 ft | 3 kts | 1° |
| 2026-05-05 15:06 | 47.62308 | -117.54165 | 2388 ft | 4 kts | 29° |
| 2026-05-05 15:06 | 47.62291 | -117.54188 | 2391 ft | 4 kts | 82° |
| 2026-05-05 15:06 | 47.62292 | -117.54205 | 2394 ft | 0 kts | 138° |
| 2026-05-05 15:09 | 47.62287 | -117.54198 | 2388 ft | 3 kts | 132° |
| 2026-05-05 15:09 | 47.62269 | -117.54128 | 2392 ft | 11 kts | 98° |
| 2026-05-05 15:09 | 47.62268 | -117.54010 | 2388 ft | 12 kts | 89° |
| 2026-05-05 15:09 | 47.62265 | -117.53869 | 2388 ft | 12 kts | 91° |
| 2026-05-05 15:10 | 47.62227 | -117.53763 | 2388 ft | 12 kts | 133° |
| 2026-05-05 15:10 | 47.62159 | -117.53705 | 2388 ft | 12 kts | 179° |
| 2026-05-05 15:10 | 47.62094 | -117.53770 | 2388 ft | 11 kts | 227° |
| 2026-05-05 15:10 | 47.62036 | -117.53865 | 2390 ft | 14 kts | 227° |
| 2026-05-05 15:11 | 47.61956 | -117.53988 | 2394 ft | 19 kts | 225° |
| 2026-05-05 15:11 | 47.61852 | -117.54145 | 2395 ft | 24 kts | 225° |
| 2026-05-05 15:11 | 47.61727 | -117.54332 | 2392 ft | 27 kts | 225° |
| 2026-05-05 15:11 | 47.61592 | -117.54539 | 2392 ft | 29 kts | 226° |
| 2026-05-05 15:12 | 47.61454 | -117.54744 | 2393 ft | 27 kts | 226° |
| 2026-05-05 15:12 | 47.61327 | -117.54939 | 2389 ft | 25 kts | 225° |
| 2026-05-05 15:12 | 47.61213 | -117.55111 | 2389 ft | 18 kts | 225° |
| 2026-05-05 15:12 | 47.61132 | -117.55158 | 2391 ft | 12 kts | 155° |
| 2026-05-05 15:13 | 47.61069 | -117.55073 | 2391 ft | 12 kts | 133° |
| 2026-05-05 15:13 | 47.61045 | -117.54966 | 2390 ft | 12 kts | 62° |
| 2026-05-05 15:13 | 47.61225 | -117.54677 | 2391 ft | 74 kts | 45° |
| 2026-05-05 15:13 | 47.61755 | -117.53885 | 2391 ft | 139 kts | 46° |
| 2026-05-05 15:14 | 47.62589 | -117.52818 | 2685 ft | 169 kts | 30° |
| 2026-05-05 15:14 | 47.63806 | -117.52485 | 3264 ft | 194 kts | 352° |
| 2026-05-05 15:14 | 47.64956 | -117.53478 | 4204 ft | 200 kts | 311° |
| 2026-05-05 15:14 | 47.65603 | -117.55350 | 4886 ft | 218 kts | 284° |
| 2026-05-05 15:15 | 47.65586 | -117.57637 | 5388 ft | 227 kts | 252° |
| 2026-05-05 15:15 | 47.64760 | -117.59609 | 6037 ft | 225 kts | 221° |
| 2026-05-05 15:15 | 47.63494 | -117.60903 | 6795 ft | 219 kts | 208° |
| 2026-05-05 15:15 | 47.62238 | -117.62202 | 7477 ft | 219 kts | 218° |
| 2026-05-05 15:16 | 47.61033 | -117.63560 | 8149 ft | 220 kts | 218° |
| 2026-05-05 15:16 | 47.59751 | -117.64942 | 8526 ft | 237 kts | 218° |
| 2026-05-05 15:16 | 47.58401 | -117.66351 | 9142 ft | 238 kts | 217° |
| 2026-05-05 15:16 | 47.57047 | -117.67646 | 10074 ft | 226 kts | 214° |
| 2026-05-05 15:17 | 47.55699 | -117.68946 | 10428 ft | 242 kts | 217° |
| 2026-05-05 15:17 | 47.54250 | -117.70429 | 10616 ft | 264 kts | 218° |
| 2026-05-05 15:17 | 47.52706 | -117.72086 | 10861 ft | 283 kts | 220° |
| 2026-05-05 15:17 | 47.51035 | -117.73856 | 10993 ft | 311 kts | 215° |
| 2026-05-05 15:18 | 47.49176 | -117.75762 | 11191 ft | 336 kts | 222° |
| 2026-05-05 15:18 | 47.47428 | -117.78189 | 11619 ft | 351 kts | 229° |
| 2026-05-05 15:18 | 47.45752 | -117.80865 | 12328 ft | 357 kts | 231° |
| 2026-05-05 15:18 | 47.44100 | -117.83634 | 13134 ft | 361 kts | 232° |
| 2026-05-05 15:19 | 47.42437 | -117.86446 | 13917 ft | 366 kts | 232° |
| 2026-05-05 15:19 | 47.40752 | -117.89303 | 14591 ft | 371 kts | 232° |
| 2026-05-05 15:19 | 47.39066 | -117.92154 | 15263 ft | 376 kts | 232° |
| 2026-05-05 15:19 | 47.37331 | -117.95081 | 15933 ft | 382 kts | 233° |
| 2026-05-05 15:20 | 47.35569 | -117.98045 | 16593 ft | 387 kts | 233° |
| 2026-05-05 15:20 | 47.33778 | -118.01053 | 17257 ft | 392 kts | 233° |
| 2026-05-05 15:20 | 47.31964 | -118.04090 | 17916 ft | 397 kts | 233° |
| 2026-05-05 15:20 | 47.30127 | -118.07162 | 18533 ft | 402 kts | 233° |
| 2026-05-05 15:21 | 47.28272 | -118.10258 | 19105 ft | 406 kts | 233° |
| 2026-05-05 15:21 | 47.26394 | -118.13388 | 19697 ft | 410 kts | 233° |
| 2026-05-05 15:21 | 47.24494 | -118.16552 | 20282 ft | 414 kts | 233° |
| 2026-05-05 15:21 | 47.22574 | -118.19746 | 20855 ft | 418 kts | 233° |
| 2026-05-05 15:22 | 47.20641 | -118.22958 | 21408 ft | 422 kts | 233° |
| 2026-05-05 15:22 | 47.18679 | -118.26213 | 21959 ft | 427 kts | 233° |
| 2026-05-05 15:22 | 47.16723 | -118.29454 | 22498 ft | 431 kts | 234° |
| 2026-05-05 15:22 | 47.14726 | -118.32760 | 23012 ft | 435 kts | 233° |
| 2026-05-05 15:23 | 47.12708 | -118.36096 | 23571 ft | 437 kts | 233° |
| 2026-05-05 15:23 | 47.10677 | -118.39447 | 24026 ft | 441 kts | 233° |
| 2026-05-05 15:23 | 47.08631 | -118.42821 | 24481 ft | 444 kts | 233° |
| 2026-05-05 15:23 | 47.06576 | -118.46204 | 25015 ft | 444 kts | 233° |
| 2026-05-05 15:24 | 47.04527 | -118.49569 | 25669 ft | 441 kts | 233° |
| 2026-05-05 15:24 | 47.02488 | -118.52913 | 26332 ft | 438 kts | 233° |
| 2026-05-05 15:24 | 47.00460 | -118.56238 | 26883 ft | 438 kts | 234° |
| 2026-05-05 15:24 | 46.98430 | -118.59565 | 27424 ft | 438 kts | 234° |
| 2026-05-05 15:25 | 46.96400 | -118.62889 | 28000 ft | 437 kts | 233° |
| 2026-05-05 15:25 | 46.94376 | -118.66196 | 28664 ft | 434 kts | 233° |
| 2026-05-05 15:25 | 46.92365 | -118.69479 | 29262 ft | 433 kts | 233° |
| 2026-05-05 15:25 | 46.90352 | -118.72762 | 29766 ft | 434 kts | 233° |
| 2026-05-05 15:26 | 46.88321 | -118.76075 | 29917 ft | 441 kts | 233° |
| 2026-05-05 15:26 | 46.84264 | -118.82674 | 29901 ft | 435 kts | 233° |
| 2026-05-05 15:27 | 46.80239 | -118.89194 | 29896 ft | 432 kts | 233° |
| 2026-05-05 15:27 | 46.76202 | -118.95728 | 29910 ft | 433 kts | 233° |
| 2026-05-05 15:28 | 46.72159 | -119.02256 | 29912 ft | 434 kts | 233° |
| 2026-05-05 15:28 | 46.68112 | -119.08772 | 29913 ft | 434 kts | 233° |
| 2026-05-05 15:29 | 46.64058 | -119.15284 | 29917 ft | 433 kts | 233° |
| 2026-05-05 15:29 | 46.60029 | -119.21739 | 29912 ft | 433 kts | 233° |
| 2026-05-05 15:30 | 46.55982 | -119.28209 | 29905 ft | 432 kts | 233° |
| 2026-05-05 15:30 | 46.51935 | -119.34663 | 29916 ft | 431 kts | 233° |
| 2026-05-05 15:31 | 46.47884 | -119.41110 | 29912 ft | 432 kts | 233° |
| 2026-05-05 15:31 | 46.43853 | -119.47507 | 29906 ft | 432 kts | 232° |
| 2026-05-05 15:32 | 46.39801 | -119.53924 | 29935 ft | 432 kts | 232° |
| 2026-05-05 15:32 | 46.35739 | -119.60340 | 29919 ft | 432 kts | 232° |
| 2026-05-05 15:33 | 46.31675 | -119.66746 | 29907 ft | 432 kts | 232° |
| 2026-05-05 15:33 | 46.27612 | -119.73133 | 29913 ft | 431 kts | 232° |
| 2026-05-05 15:34 | 46.23558 | -119.79492 | 29893 ft | 429 kts | 232° |
| 2026-05-05 15:34 | 46.19529 | -119.85796 | 29885 ft | 428 kts | 232° |
| 2026-05-05 15:35 | 46.15484 | -119.92112 | 29894 ft | 428 kts | 232° |
| 2026-05-05 15:35 | 46.11441 | -119.98410 | 29891 ft | 427 kts | 231° |
| 2026-05-05 15:36 | 46.07449 | -120.04607 | 29645 ft | 416 kts | 231° |
| 2026-05-05 15:36 | 46.05499 | -120.07630 | 29421 ft | 409 kts | 231° |
| 2026-05-05 15:36 | 46.03571 | -120.10617 | 29035 ft | 406 kts | 231° |
| 2026-05-05 15:36 | 46.01683 | -120.13542 | 28705 ft | 402 kts | 231° |
| 2026-05-05 15:37 | 45.99784 | -120.16479 | 28328 ft | 400 kts | 231° |
| 2026-05-05 15:37 | 45.97897 | -120.19396 | 27969 ft | 397 kts | 231° |
| 2026-05-05 15:37 | 45.96021 | -120.22291 | 27606 ft | 394 kts | 231° |
| 2026-05-05 15:37 | 45.94146 | -120.25183 | 27251 ft | 392 kts | 231° |
| 2026-05-05 15:38 | 45.92289 | -120.28043 | 26912 ft | 389 kts | 231° |
| 2026-05-05 15:38 | 45.90446 | -120.30878 | 26569 ft | 387 kts | 231° |
| 2026-05-05 15:38 | 45.88635 | -120.33662 | 26229 ft | 385 kts | 231° |
| 2026-05-05 15:38 | 45.86810 | -120.36465 | 25884 ft | 383 kts | 231° |
| 2026-05-05 15:39 | 45.84989 | -120.39259 | 25544 ft | 382 kts | 231° |
| 2026-05-05 15:39 | 45.83177 | -120.42036 | 25208 ft | 380 kts | 231° |
| 2026-05-05 15:39 | 45.81368 | -120.44808 | 24868 ft | 379 kts | 231° |
| 2026-05-05 15:39 | 45.79569 | -120.47558 | 24527 ft | 378 kts | 231° |
| 2026-05-05 15:40 | 45.77771 | -120.50304 | 24193 ft | 377 kts | 231° |
| 2026-05-05 15:40 | 45.76256 | -120.53310 | 23792 ft | 368 kts | 251° |
| 2026-05-05 15:40 | 45.75452 | -120.56767 | 23405 ft | 364 kts | 260° |
| 2026-05-05 15:40 | 45.74790 | -120.60263 | 22855 ft | 363 kts | 261° |
| 2026-05-05 15:41 | 45.74150 | -120.63747 | 22439 ft | 362 kts | 261° |
| 2026-05-05 15:41 | 45.73513 | -120.67194 | 22003 ft | 362 kts | 260° |
| 2026-05-05 15:41 | 45.72856 | -120.70692 | 21570 ft | 362 kts | 260° |
| 2026-05-05 15:41 | 45.72192 | -120.74181 | 21136 ft | 363 kts | 259° |
| 2026-05-05 15:42 | 45.71522 | -120.77667 | 20715 ft | 363 kts | 259° |
| 2026-05-05 15:42 | 45.70857 | -120.81102 | 20292 ft | 362 kts | 259° |
| 2026-05-05 15:42 | 45.70174 | -120.84620 | 19857 ft | 363 kts | 259° |
| 2026-05-05 15:42 | 45.69505 | -120.88052 | 19436 ft | 363 kts | 258° |
| 2026-05-05 15:43 | 45.68824 | -120.91539 | 19029 ft | 364 kts | 258° |
| 2026-05-05 15:43 | 45.68142 | -120.95026 | 18602 ft | 366 kts | 258° |
| 2026-05-05 15:43 | 45.67454 | -120.98543 | 18129 ft | 366 kts | 258° |
| 2026-05-05 15:43 | 45.66763 | -121.02067 | 17594 ft | 367 kts | 258° |
| 2026-05-05 15:44 | 45.66074 | -121.05569 | 17151 ft | 365 kts | 258° |
| 2026-05-05 15:44 | 45.65394 | -121.09015 | 16717 ft | 364 kts | 258° |
| 2026-05-05 15:44 | 45.64710 | -121.12498 | 16254 ft | 364 kts | 258° |
| 2026-05-05 15:44 | 45.64019 | -121.16018 | 15821 ft | 362 kts | 257° |
| 2026-05-05 15:45 | 45.63348 | -121.19429 | 15395 ft | 361 kts | 257° |
| 2026-05-05 15:45 | 45.62669 | -121.22880 | 14950 ft | 360 kts | 257° |
| 2026-05-05 15:45 | 45.61991 | -121.26321 | 14532 ft | 360 kts | 257° |
| 2026-05-05 15:45 | 45.61311 | -121.29763 | 14104 ft | 359 kts | 257° |
| 2026-05-05 15:46 | 45.60640 | -121.33155 | 13657 ft | 350 kts | 257° |
| 2026-05-05 15:46 | 45.59980 | -121.36469 | 13179 ft | 341 kts | 257° |
| 2026-05-05 15:46 | 45.59342 | -121.39678 | 12784 ft | 331 kts | 256° |
| 2026-05-05 15:46 | 45.58723 | -121.42781 | 12471 ft | 319 kts | 256° |
| 2026-05-05 15:47 | 45.58124 | -121.45772 | 12174 ft | 309 kts | 256° |
| 2026-05-05 15:47 | 45.57736 | -121.47705 | 11993 ft | 302 kts | 256° |
| 2026-05-05 15:47 | 45.56981 | -121.51472 | 11651 ft | 295 kts | 256° |
| 2026-05-05 15:47 | 45.56419 | -121.54276 | 11383 ft | 294 kts | 256° |
| 2026-05-05 15:48 | 45.55858 | -121.57071 | 11112 ft | 292 kts | 256° |
| 2026-05-05 15:48 | 45.55298 | -121.59859 | 10845 ft | 291 kts | 256° |
| 2026-05-05 15:48 | 45.54739 | -121.62636 | 10576 ft | 290 kts | 256° |
| 2026-05-05 15:48 | 45.54183 | -121.65395 | 10328 ft | 290 kts | 256° |
| 2026-05-05 15:49 | 45.53625 | -121.68154 | 10067 ft | 289 kts | 255° |
| 2026-05-05 15:49 | 45.53076 | -121.70904 | 9790 ft | 288 kts | 258° |
| 2026-05-05 15:49 | 45.52934 | -121.73718 | 9495 ft | 284 kts | 275° |
| 2026-05-05 15:49 | 45.53033 | -121.75576 | 9321 ft | 283 kts | 276° |
| 2026-05-05 15:50 | 45.53185 | -121.78362 | 9040 ft | 279 kts | 276° |
| 2026-05-05 15:50 | 45.53367 | -121.81982 | 8709 ft | 273 kts | 276° |
| 2026-05-05 15:50 | 45.53491 | -121.84698 | 8459 ft | 275 kts | 275° |
| 2026-05-05 15:50 | 45.53571 | -121.86527 | 8304 ft | 274 kts | 275° |
| 2026-05-05 15:51 | 45.53683 | -121.89210 | 8054 ft | 275 kts | 274° |
| 2026-05-05 15:51 | 45.53794 | -121.91931 | 7812 ft | 275 kts | 274° |
| 2026-05-05 15:51 | 45.53904 | -121.94637 | 7578 ft | 269 kts | 273° |
| 2026-05-05 15:51 | 45.54009 | -121.97259 | 7328 ft | 260 kts | 273° |
| 2026-05-05 15:52 | 45.54110 | -121.99801 | 7066 ft | 252 kts | 273° |
| 2026-05-05 15:52 | 45.54207 | -122.02252 | 6854 ft | 244 kts | 273° |
| 2026-05-05 15:52 | 45.53951 | -122.04580 | 6640 ft | 237 kts | 243° |
| 2026-05-05 15:52 | 45.53060 | -122.06532 | 6542 ft | 235 kts | 233° |
| 2026-05-05 15:53 | 45.52091 | -122.08456 | 6403 ft | 242 kts | 233° |
| 2026-05-05 15:53 | 45.51105 | -122.10418 | 6250 ft | 244 kts | 233° |
| 2026-05-05 15:53 | 45.50122 | -122.12379 | 6085 ft | 242 kts | 234° |
| 2026-05-05 15:53 | 45.49150 | -122.14323 | 5951 ft | 239 kts | 234° |
| 2026-05-05 15:54 | 45.48192 | -122.16239 | 5799 ft | 235 kts | 234° |
| 2026-05-05 15:54 | 45.47374 | -122.18147 | 5607 ft | 224 kts | 252° |
| 2026-05-05 15:54 | 45.47239 | -122.20277 | 5423 ft | 211 kts | 272° |
| 2026-05-05 15:54 | 45.47232 | -122.22349 | 5173 ft | 205 kts | 271° |
| 2026-05-05 15:55 | 45.47219 | -122.24341 | 4921 ft | 198 kts | 272° |
| 2026-05-05 15:55 | 45.47207 | -122.26282 | 4676 ft | 194 kts | 272° |
| 2026-05-05 15:55 | 45.47196 | -122.28194 | 4435 ft | 192 kts | 271° |
| 2026-05-05 15:55 | 45.47207 | -122.30088 | 4291 ft | 187 kts | 279° |
| 2026-05-05 15:56 | 45.47712 | -122.31775 | 4222 ft | 192 kts | 306° |
| 2026-05-05 15:56 | 45.48423 | -122.33411 | 3960 ft | 194 kts | 300° |
| 2026-05-05 15:56 | 45.49069 | -122.35086 | 3693 ft | 191 kts | 298° |
| 2026-05-05 15:56 | 45.49700 | -122.36736 | 3454 ft | 188 kts | 298° |
| 2026-05-05 15:57 | 45.50324 | -122.38358 | 3203 ft | 186 kts | 297° |
| 2026-05-05 15:57 | 45.50951 | -122.39989 | 2956 ft | 189 kts | 297° |
| 2026-05-05 15:57 | 45.51573 | -122.41602 | 2700 ft | 187 kts | 297° |
| 2026-05-05 15:57 | 45.52197 | -122.43220 | 2439 ft | 184 kts | 297° |
| 2026-05-05 15:58 | 45.52796 | -122.44771 | 2186 ft | 173 kts | 297° |
| 2026-05-05 15:58 | 45.53352 | -122.46209 | 1998 ft | 157 kts | 296° |
| 2026-05-05 15:58 | 45.53862 | -122.47531 | 1773 ft | 150 kts | 297° |
| 2026-05-05 15:58 | 45.54367 | -122.48840 | 1557 ft | 151 kts | 297° |
| 2026-05-05 15:59 | 45.54874 | -122.50150 | 1352 ft | 150 kts | 297° |
| 2026-05-05 15:59 | 45.55369 | -122.51433 | 1166 ft | 149 kts | 297° |
| 2026-05-05 15:59 | 45.55872 | -122.52733 | 960 ft | 149 kts | 297° |
| 2026-05-05 15:59 | 45.56372 | -122.54026 | 749 ft | 149 kts | 297° |
| 2026-05-05 16:00 | 45.56874 | -122.55322 | 546 ft | 149 kts | 298° |
| 2026-05-05 16:00 | 45.57374 | -122.56614 | 355 ft | 148 kts | 297° |
| 2026-05-05 16:00 | 45.57876 | -122.57903 | 135 ft | 149 kts | 297° |
| 2026-05-05 16:00 | 45.58364 | -122.59149 | 28 ft | 138 kts | 298° |
| 2026-05-05 16:01 | 45.58743 | -122.60133 | 28 ft | 82 kts | 299° |
| 2026-05-05 16:01 | 45.58924 | -122.60599 | 27 ft | 38 kts | 298° |
| 2026-05-05 16:01 | 45.59051 | -122.60931 | 28 ft | 38 kts | 298° |
| 2026-05-05 16:01 | 45.59154 | -122.61206 | 27 ft | 27 kts | 300° |
| 2026-05-05 16:02 | 45.59281 | -122.61333 | 26 ft | 23 kts | 7° |
| 2026-05-05 16:02 | 45.59329 | -122.61214 | 27 ft | 16 kts | 104° |
| 2026-05-05 16:02 | 45.59271 | -122.61058 | 27 ft | 20 kts | 118° |
| 2026-05-05 16:02 | 45.59202 | -122.60867 | 27 ft | 23 kts | 117° |
| 2026-05-05 16:03 | 45.59144 | -122.60643 | 27 ft | 22 kts | 95° |
| 2026-05-05 16:03 | 45.59141 | -122.60420 | 28 ft | 22 kts | 91° |
| 2026-05-05 16:03 | 45.59140 | -122.60237 | 27 ft | 16 kts | 89° |
| 2026-05-05 16:03 | 45.59141 | -122.60084 | 27 ft | 11 kts | 90° |
| 2026-05-05 16:04 | 45.59141 | -122.59990 | 27 ft | 8 kts | 90° |
| 2026-05-05 16:04 | 45.59119 | -122.59930 | 28 ft | 8 kts | 162° |
| 2026-05-05 16:04 | 45.59078 | -122.59938 | 28 ft | 3 kts | 195° |
| 2026-05-05 16:04 | 45.59060 | -122.59945 | 27 ft | 0 kts | 197° |
| 2026-05-05 16:05 | 45.59060 | -122.59946 | 27 ft | 0 kts | 197° |
| 2026-05-05 16:05 | 45.59059 | -122.59946 | 27 ft | 0 kts | 196° |